createdAt,value
2019-01-13T00:03:14.820Z,9.84
2019-01-13T00:08:17.738Z,9.73
2019-01-13T00:13:20.589Z,9.58
2019-01-13T00:18:23.335Z,9.63
2019-01-13T00:23:26.195Z,9.69
2019-01-13T00:28:28.965Z,9.60
2019-01-13T00:33:31.840Z,9.58
2019-01-13T00:38:34.707Z,9.68
2019-01-13T00:43:37.597Z,9.73
2019-01-13T00:48:40.411Z,9.57
2019-01-13T00:53:43.177Z,9.49
2019-01-13T00:58:46.080Z,9.44
2019-01-13T01:03:49.019Z,9.50
2019-01-13T01:08:51.876Z,9.49
2019-01-13T01:13:54.619Z,9.53
2019-01-13T01:18:57.426Z,9.56
2019-01-13T01:24:00.243Z,9.58
2019-01-13T01:29:03.143Z,9.69
2019-01-13T01:34:05.920Z,9.73
2019-01-13T01:39:08.717Z,9.77
2019-01-13T01:44:11.475Z,9.81
2019-01-13T01:49:14.233Z,9.81
2019-01-13T01:54:16.945Z,9.84
2019-01-13T01:59:19.790Z,9.77
2019-01-13T02:04:22.635Z,9.78
2019-01-13T02:09:25.424Z,9.81
2019-01-13T02:14:28.213Z,9.73
2019-01-13T02:19:30.933Z,9.71
2019-01-13T02:24:33.944Z,9.66
2019-01-13T02:29:37.057Z,9.62
2019-01-13T02:34:39.786Z,9.58
2019-01-13T02:39:42.588Z,9.60
2019-01-13T02:44:45.471Z,9.51
2019-01-13T02:49:48.345Z,9.44
2019-01-13T02:54:51.120Z,9.37
2019-01-13T02:59:56.706Z,9.29
2019-01-13T03:04:59.385Z,9.18
2019-01-13T03:10:02.226Z,9.16
2019-01-13T03:15:06.203Z,9.18
2019-01-13T03:20:09.695Z,9.12
2019-01-13T03:25:14.321Z,9.16
2019-01-13T03:30:19.801Z,9.26
2019-01-13T03:35:22.811Z,9.34
2019-01-13T03:40:25.889Z,9.45
2019-01-13T03:45:28.865Z,9.48
2019-01-13T03:50:31.613Z,9.53
2019-01-13T03:55:34.401Z,9.49
2019-01-13T04:00:37.162Z,9.49
2019-01-13T04:05:40.120Z,9.47
2019-01-13T04:10:42.917Z,9.47
2019-01-13T04:15:57.119Z,9.48
2019-01-13T04:21:00.273Z,9.48
2019-01-13T04:26:03.226Z,9.37
2019-01-13T04:31:06.103Z,9.42
2019-01-13T04:36:08.937Z,9.39
2019-01-13T04:41:11.689Z,9.41
2019-01-13T04:46:14.518Z,9.44
2019-01-13T04:51:17.409Z,9.40
2019-01-13T04:56:20.223Z,9.34
2019-01-13T05:01:24.020Z,9.22
2019-01-13T05:06:26.960Z,9.24
2019-01-13T05:11:29.855Z,9.20
2019-01-13T05:16:32.746Z,9.19
2019-01-13T05:21:35.631Z,9.13
2019-01-13T05:26:38.468Z,9.11
2019-01-13T05:31:42.124Z,9.23
2019-01-13T05:36:45.158Z,9.25
2019-01-13T05:41:47.923Z,9.29
2019-01-13T05:46:50.881Z,9.31
2019-01-13T05:51:53.670Z,9.37
2019-01-13T05:56:56.547Z,9.31
2019-01-13T06:01:59.616Z,9.27
2019-01-13T06:07:02.487Z,9.35
2019-01-13T06:12:05.300Z,9.47
2019-01-13T06:17:08.131Z,9.48
2019-01-13T06:22:10.876Z,9.47
2019-01-13T06:27:13.689Z,9.41
2019-01-13T06:32:16.488Z,9.48
2019-01-13T06:37:19.145Z,9.49
2019-01-13T06:42:21.861Z,9.50
2019-01-13T06:47:24.717Z,9.53
2019-01-13T06:52:27.467Z,9.58
2019-01-13T06:57:30.231Z,9.47
2019-01-13T07:02:33.941Z,9.45
2019-01-13T07:07:37.570Z,9.49
2019-01-13T07:12:40.500Z,9.47
2019-01-13T07:17:43.440Z,9.46
2019-01-13T07:22:46.491Z,9.52
2019-01-13T07:27:49.298Z,9.51
2019-01-13T07:32:52.226Z,9.52
2019-01-13T07:37:54.996Z,9.46
2019-01-13T07:42:57.950Z,9.37
2019-01-13T07:48:00.726Z,9.40
2019-01-13T07:53:03.824Z,9.43
2019-01-13T07:58:06.582Z,9.49
2019-01-13T08:03:11.356Z,9.58
2019-01-13T08:08:14.261Z,9.61
2019-01-13T08:13:17.311Z,9.58
2019-01-13T08:18:20.053Z,9.75
2019-01-13T08:23:22.756Z,9.67
2019-01-13T08:28:25.585Z,9.60
2019-01-13T08:33:28.388Z,9.60
2019-01-13T08:38:31.208Z,9.62
2019-01-13T08:48:43.879Z,9.73
2019-01-13T08:53:46.579Z,9.65
2019-01-13T08:58:49.375Z,9.70
2019-01-13T09:03:53.041Z,9.73
2019-01-13T09:08:55.749Z,9.69
2019-01-13T09:13:58.644Z,9.70
2019-01-13T09:19:01.558Z,9.77
2019-01-13T09:24:04.427Z,9.81
2019-01-13T09:29:07.345Z,9.78
2019-01-13T09:34:10.022Z,9.83
2019-01-13T09:39:12.794Z,9.90
2019-01-13T09:44:15.545Z,10.00
2019-01-13T09:49:18.395Z,9.99
2019-01-13T09:54:21.084Z,9.99
2019-01-13T09:59:24.095Z,10.10
2019-01-13T10:04:27.082Z,10.10
2019-01-13T10:09:29.981Z,10.13
2019-01-13T10:14:32.812Z,10.13
2019-01-13T10:19:35.464Z,10.17
2019-01-13T10:24:38.099Z,10.21
2019-01-13T10:29:40.849Z,10.28
2019-01-13T10:34:43.606Z,10.39
2019-01-13T10:39:46.372Z,10.47
2019-01-13T10:44:49.097Z,10.63
2019-01-13T10:49:51.827Z,10.73
2019-01-13T10:54:54.662Z,10.66
2019-01-13T10:59:57.432Z,10.67
2019-01-13T11:05:00.930Z,10.65
2019-01-13T11:10:04.763Z,10.57
2019-01-13T11:15:09.369Z,10.63
2019-01-13T11:20:16.615Z,10.67
2019-01-13T11:25:19.775Z,10.63
2019-01-13T11:30:23.137Z,10.68
2019-01-13T11:35:25.972Z,10.52
2019-01-13T11:40:29.521Z,10.44
2019-01-13T11:45:32.534Z,10.52
2019-01-13T11:50:35.454Z,10.56
2019-01-13T11:55:38.187Z,10.48
2019-01-13T12:00:44.385Z,10.40
2019-01-13T12:05:47.250Z,10.32
2019-01-13T12:10:50.029Z,10.46
2019-01-13T12:15:52.827Z,10.73
2019-01-13T12:20:55.482Z,10.90
2019-01-13T12:25:58.184Z,10.98
2019-01-13T12:31:01.248Z,11.07
2019-01-13T12:36:04.247Z,10.84
2019-01-13T12:41:07.010Z,10.71
2019-01-13T12:46:11.469Z,10.65
2019-01-13T12:51:14.702Z,10.62
2019-01-13T12:56:17.565Z,10.75
2019-01-13T13:01:20.347Z,10.78
2019-01-13T13:06:23.232Z,10.73
2019-01-13T13:11:26.123Z,10.73
2019-01-13T13:16:29.041Z,10.62
2019-01-13T13:21:31.771Z,10.65
2019-01-13T13:26:34.743Z,10.59
2019-01-13T13:31:37.585Z,10.54
2019-01-13T13:36:40.372Z,10.60
2019-01-13T13:41:43.066Z,10.61
2019-01-13T13:46:45.924Z,10.58
2019-01-13T13:51:48.619Z,10.66
2019-01-13T13:56:51.228Z,10.73
2019-01-13T14:01:53.932Z,10.59
2019-01-13T14:06:56.836Z,10.45
2019-01-13T14:11:59.601Z,10.34
2019-01-13T14:17:02.251Z,10.28
2019-01-13T14:22:05.056Z,10.30
2019-01-13T14:27:08.148Z,10.42
2019-01-13T14:32:11.019Z,10.36
2019-01-13T14:37:14.207Z,10.44
2019-01-13T14:42:17.039Z,10.32
2019-01-13T14:47:19.841Z,10.35
2019-01-13T14:52:22.599Z,10.36
2019-01-13T14:57:25.370Z,10.37
2019-01-13T15:02:28.319Z,10.33
2019-01-13T15:07:31.153Z,10.35
2019-01-13T15:12:33.969Z,10.41
2019-01-13T15:17:36.980Z,10.42
2019-01-13T15:22:39.985Z,10.53
2019-01-13T15:27:42.858Z,10.54
2019-01-13T15:32:45.787Z,10.47
2019-01-13T15:37:48.612Z,10.46
2019-01-13T15:42:51.539Z,10.38
2019-01-13T15:47:54.505Z,10.41
2019-01-13T15:52:57.341Z,10.38
2019-01-13T15:58:00.178Z,10.38
2019-01-13T16:03:03.630Z,10.30
2019-01-13T16:08:07.253Z,10.22
2019-01-13T16:13:10.048Z,10.09
2019-01-13T16:18:12.868Z,9.82
2019-01-13T16:23:15.581Z,9.91
2019-01-13T16:28:18.622Z,9.90
2019-01-13T16:33:21.367Z,9.98
2019-01-13T16:38:24.273Z,10.00
2019-01-13T16:43:27.153Z,10.02
2019-01-13T16:48:30.049Z,9.97
2019-01-13T16:53:32.997Z,9.93
2019-01-13T16:58:35.803Z,9.88
2019-01-13T17:03:38.778Z,9.86
2019-01-13T17:08:41.686Z,9.90
2019-01-13T17:13:45.528Z,9.89
2019-01-13T17:18:48.510Z,9.93
2019-01-13T17:23:51.814Z,10.00
2019-01-13T17:28:54.821Z,10.03
2019-01-13T17:33:57.687Z,10.05
2019-01-13T17:39:00.534Z,10.09
2019-01-13T17:44:03.512Z,10.07
2019-01-13T17:49:06.320Z,10.07
2019-01-13T17:54:08.955Z,9.95
2019-01-13T17:59:11.687Z,10.03
2019-01-13T18:04:14.872Z,10.08
2019-01-13T18:09:17.785Z,10.05
2019-01-13T18:14:20.623Z,10.03
2019-01-13T18:19:23.661Z,10.01
2019-01-13T18:24:26.599Z,10.12
2019-01-13T18:29:29.324Z,9.99
2019-01-13T18:34:32.335Z,10.10
2019-01-13T18:39:35.160Z,10.20
2019-01-13T18:44:39.411Z,10.24
2019-01-13T18:49:42.380Z,10.21
2019-01-13T18:54:45.358Z,10.24
2019-01-13T18:59:48.273Z,10.31
2019-01-13T19:04:57.312Z,10.29
2019-01-13T19:09:56.187Z,10.31
2019-01-13T19:15:01.356Z,10.39
2019-01-13T19:20:18.546Z,10.39
2019-01-13T19:25:27.335Z,10.33
2019-01-13T19:30:30.122Z,10.36
2019-01-13T19:35:33.177Z,10.36
2019-01-13T19:40:36.072Z,10.30
2019-01-13T19:45:39.878Z,10.31
2019-01-13T19:50:42.683Z,10.36
2019-01-13T19:55:45.581Z,10.35
2019-01-13T20:00:48.327Z,10.33
2019-01-13T20:05:51.236Z,10.34
2019-01-13T20:10:54.129Z,10.40
2019-01-13T20:15:57.059Z,10.44
2019-01-13T20:20:59.857Z,10.40
2019-01-13T20:26:02.649Z,10.45
2019-01-13T20:31:05.698Z,10.48
2019-01-13T20:36:08.714Z,10.53
2019-01-13T20:41:11.513Z,10.54
2019-01-13T20:46:14.264Z,10.54
2019-01-13T20:51:16.939Z,10.49
2019-01-13T20:56:21.433Z,10.44
2019-01-13T21:01:24.126Z,10.36
2019-01-13T21:06:26.887Z,10.42
2019-01-13T21:11:29.722Z,10.45
2019-01-13T21:16:32.578Z,10.51
2019-01-13T21:21:35.448Z,10.51
2019-01-13T21:26:38.415Z,10.45
2019-01-13T21:31:41.302Z,10.34
2019-01-13T21:36:44.238Z,10.23
2019-01-13T21:41:47.293Z,10.09
2019-01-13T21:46:50.190Z,10.02
2019-01-13T21:51:53.264Z,9.98
2019-01-13T21:56:56.062Z,9.77
2019-01-13T22:01:58.866Z,9.77
2019-01-13T22:07:01.614Z,9.75
2019-01-13T22:12:04.634Z,9.72
2019-01-13T22:17:07.307Z,9.62
2019-01-13T22:22:10.296Z,9.49
2019-01-13T22:27:13.028Z,9.37
2019-01-13T22:32:15.708Z,9.42
2019-01-13T22:37:18.713Z,9.47
2019-01-13T22:42:21.551Z,9.57
2019-01-13T22:47:24.216Z,9.51
2019-01-13T22:52:27.011Z,9.48
2019-01-13T22:57:29.722Z,9.45
2019-01-13T23:02:32.584Z,9.26
2019-01-13T23:07:35.847Z,9.14
2019-01-13T23:12:38.753Z,9.05
2019-01-13T23:17:41.971Z,9.05
2019-01-13T23:22:44.748Z,8.96
2019-01-13T23:27:47.331Z,8.92
2019-01-13T23:32:50.041Z,8.91
2019-01-13T23:37:52.962Z,8.77
2019-01-13T23:42:55.716Z,8.79
2019-01-13T23:47:58.541Z,8.95
2019-01-13T23:53:01.246Z,9.02
2019-01-13T23:58:04.089Z,8.80
